sensor_id;sensor_type;location;lat;lon;timestamp;temperature;humidity
3756;DHT22;1893;52.526;13.360;2023-07-13T00:01:28;19.70;99.90
3756;DHT22;1893;52.526;13.360;2023-07-13T00:03:57;19.60;99.90
3756;DHT22;1893;52.526;13.360;2023-07-13T00:06:23;19.60;99.90
3756;DHT22;1893;52.526;13.360;2023-07-13T00:08:49;19.50;99.90
3756;DHT22;1893;52.526;13.360;2023-07-13T00:11:15;19.50;99.90
3756;DHT22;1893;52.526;13.360;2023-07-13T00:13:42;19.40;99.90
3756;DHT22;1893;52.526;13.360;2023-07-13T00:16:10;19.40;99.90
3756;DHT22;1893;52.526;13.360;2023-07-13T00:18:36;19.40;99.90
3756;DHT22;1893;52.526;13.360;2023-07-13T00:21:03;19.40;99.90
3756;DHT22;1893;52.526;13.360;2023-07-13T00:23:33;19.30;99.90
3756;DHT22;1893;52.526;13.360;2023-07-13T00:26:03;19.30;99.90
3756;DHT22;1893;52.526;13.360;2023-07-13T00:28:29;19.20;99.90
3756;DHT22;1893;52.526;13.360;2023-07-13T00:30:54;19.10;99.90
3756;DHT22;1893;52.526;13.360;2023-07-13T00:33:20;19.00;99.90
3756;DHT22;1893;52.526;13.360;2023-07-13T00:35:46;19.00;99.90
3756;DHT22;1893;52.526;13.360;2023-07-13T00:38:12;19.10;99.90
3756;DHT22;1893;52.526;13.360;2023-07-13T00:40:38;19.00;99.90
3756;DHT22;1893;52.526;13.360;2023-07-13T00:43:09;18.90;99.90
3756;DHT22;1893;52.526;13.360;2023-07-13T00:48:02;18.80;99.90
3756;DHT22;1893;52.526;13.360;2023-07-13T00:50:28;18.80;99.90
3756;DHT22;1893;52.526;13.360;2023-07-13T00:52:55;18.80;99.90
3756;DHT22;1893;52.526;13.360;2023-07-13T00:55:23;18.70;99.90
3756;DHT22;1893;52.526;13.360;2023-07-13T00:57:49;18.60;99.90
3756;DHT22;1893;52.526;13.360;2023-07-13T01:00:14;18.50;99.90
3756;DHT22;1893;52.526;13.360;2023-07-13T01:02:44;18.70;99.90
3756;DHT22;1893;52.526;13.360;2023-07-13T01:05:13;18.70;99.90
3756;DHT22;1893;52.526;13.360;2023-07-13T01:07:43;18.50;99.90
3756;DHT22;1893;52.526;13.360;2023-07-13T01:10:10;18.50;99.90
3756;DHT22;1893;52.526;13.360;2023-07-13T01:12:36;18.60;99.90
3756;DHT22;1893;52.526;13.360;2023-07-13T01:15:03;18.60;99.90
3756;DHT22;1893;52.526;13.360;2023-07-13T01:17:31;18.60;99.90
3756;DHT22;1893;52.526;13.360;2023-07-13T01:19:57;18.60;99.90
3756;DHT22;1893;52.526;13.360;2023-07-13T01:22:22;18.60;99.90
3756;DHT22;1893;52.526;13.360;2023-07-13T01:24:51;18.50;99.90
3756;DHT22;1893;52.526;13.360;2023-07-13T01:27:21;18.40;99.90
3756;DHT22;1893;52.526;13.360;2023-07-13T01:29:48;18.30;99.90
3756;DHT22;1893;52.526;13.360;2023-07-13T01:32:24;18.40;99.90
3756;DHT22;1893;52.526;13.360;2023-07-13T01:34:51;18.50;99.90
3756;DHT22;1893;52.526;13.360;2023-07-13T01:37:20;18.30;99.90
3756;DHT22;1893;52.526;13.360;2023-07-13T01:39:46;18.40;99.90
3756;DHT22;1893;52.526;13.360;2023-07-13T01:42:12;18.40;99.90
3756;DHT22;1893;52.526;13.360;2023-07-13T01:44:38;18.30;99.90
3756;DHT22;1893;52.526;13.360;2023-07-13T01:47:04;18.20;99.90
3756;DHT22;1893;52.526;13.360;2023-07-13T01:49:29;18.10;99.90
3756;DHT22;1893;52.526;13.360;2023-07-13T01:51:55;18.00;99.90
3756;DHT22;1893;52.526;13.360;2023-07-13T01:54:21;18.00;99.90
3756;DHT22;1893;52.526;13.360;2023-07-13T01:56:46;18.00;99.90
3756;DHT22;1893;52.526;13.360;2023-07-13T01:59:12;18.20;99.90
3756;DHT22;1893;52.526;13.360;2023-07-13T02:01:37;18.30;99.90
3756;DHT22;1893;52.526;13.360;2023-07-13T02:04:03;18.00;99.90
3756;DHT22;1893;52.526;13.360;2023-07-13T02:06:29;17.90;99.90
3756;DHT22;1893;52.526;13.360;2023-07-13T02:08:55;18.10;99.90
3756;DHT22;1893;52.526;13.360;2023-07-13T02:11:20;18.10;99.90
3756;DHT22;1893;52.526;13.360;2023-07-13T02:13:46;18.00;99.90
3756;DHT22;1893;52.526;13.360;2023-07-13T02:16:12;18.00;99.90
3756;DHT22;1893;52.526;13.360;2023-07-13T02:18:37;18.00;99.90
3756;DHT22;1893;52.526;13.360;2023-07-13T02:21:03;18.10;99.90
3756;DHT22;1893;52.526;13.360;2023-07-13T02:23:29;18.30;99.90
3756;DHT22;1893;52.526;13.360;2023-07-13T02:25:59;18.20;99.90
3756;DHT22;1893;52.526;13.360;2023-07-13T02:28:25;18.20;99.90
3756;DHT22;1893;52.526;13.360;2023-07-13T02:30:51;18.20;99.90
3756;DHT22;1893;52.526;13.360;2023-07-13T02:33:17;18.20;99.90
3756;DHT22;1893;52.526;13.360;2023-07-13T02:35:42;18.30;99.90
3756;DHT22;1893;52.526;13.360;2023-07-13T02:38:08;18.20;99.90
3756;DHT22;1893;52.526;13.360;2023-07-13T02:40:34;18.00;99.90
3756;DHT22;1893;52.526;13.360;2023-07-13T02:43:00;17.90;99.90
3756;DHT22;1893;52.526;13.360;2023-07-13T02:45:25;17.90;99.90
3756;DHT22;1893;52.526;13.360;2023-07-13T02:47:51;17.70;99.90
3756;DHT22;1893;52.526;13.360;2023-07-13T02:50:17;17.70;99.90
3756;DHT22;1893;52.526;13.360;2023-07-13T02:52:43;17.90;99.90
3756;DHT22;1893;52.526;13.360;2023-07-13T02:55:08;17.70;99.90
3756;DHT22;1893;52.526;13.360;2023-07-13T02:57:34;17.50;99.90
3756;DHT22;1893;52.526;13.360;2023-07-13T03:00:00;17.40;99.90
3756;DHT22;1893;52.526;13.360;2023-07-13T03:02:26;17.60;99.90
3756;DHT22;1893;52.526;13.360;2023-07-13T03:04:54;17.50;99.90
3756;DHT22;1893;52.526;13.360;2023-07-13T03:07:20;17.50;99.90
3756;DHT22;1893;52.526;13.360;2023-07-13T03:09:46;17.50;99.90
3756;DHT22;1893;52.526;13.360;2023-07-13T03:12:12;17.40;99.90
3756;DHT22;1893;52.526;13.360;2023-07-13T03:14:37;17.40;99.90
3756;DHT22;1893;52.526;13.360;2023-07-13T03:17:03;17.40;99.90
3756;DHT22;1893;52.526;13.360;2023-07-13T03:19:29;17.40;99.90
3756;DHT22;1893;52.526;13.360;2023-07-13T03:21:55;17.40;99.90
3756;DHT22;1893;52.526;13.360;2023-07-13T03:24:20;17.50;99.90
3756;DHT22;1893;52.526;13.360;2023-07-13T03:26:48;17.60;99.90
3756;DHT22;1893;52.526;13.360;2023-07-13T03:29:14;17.60;99.90
3756;DHT22;1893;52.526;13.360;2023-07-13T03:31:40;17.60;99.90
3756;DHT22;1893;52.526;13.360;2023-07-13T03:34:05;17.60;99.90
3756;DHT22;1893;52.526;13.360;2023-07-13T03:36:32;17.70;99.90
3756;DHT22;1893;52.526;13.360;2023-07-13T03:39:00;17.70;99.90
3756;DHT22;1893;52.526;13.360;2023-07-13T03:41:26;17.70;99.90
3756;DHT22;1893;52.526;13.360;2023-07-13T03:43:52;17.70;99.90
3756;DHT22;1893;52.526;13.360;2023-07-13T03:46:18;17.80;99.90
3756;DHT22;1893;52.526;13.360;2023-07-13T03:48:46;17.80;99.90
3756;DHT22;1893;52.526;13.360;2023-07-13T03:51:14;17.80;99.90
3756;DHT22;1893;52.526;13.360;2023-07-13T03:53:44;17.80;99.90
3756;DHT22;1893;52.526;13.360;2023-07-13T03:56:10;17.90;99.90
3756;DHT22;1893;52.526;13.360;2023-07-13T03:58:40;17.90;99.90
3756;DHT22;1893;52.526;13.360;2023-07-13T04:01:08;17.90;99.90
3756;DHT22;1893;52.526;13.360;2023-07-13T04:03:35;17.90;99.90
3756;DHT22;1893;52.526;13.360;2023-07-13T04:06:03;17.80;99.90
3756;DHT22;1893;52.526;13.360;2023-07-13T04:08:36;17.90;99.90
3756;DHT22;1893;52.526;13.360;2023-07-13T04:11:03;18.00;99.90
3756;DHT22;1893;52.526;13.360;2023-07-13T04:13:29;18.00;99.90
3756;DHT22;1893;52.526;13.360;2023-07-13T04:15:55;17.90;99.90
3756;DHT22;1893;52.526;13.360;2023-07-13T04:18:21;18.00;99.90
3756;DHT22;1893;52.526;13.360;2023-07-13T04:20:47;18.00;99.90
3756;DHT22;1893;52.526;13.360;2023-07-13T04:23:14;18.10;99.90
3756;DHT22;1893;52.526;13.360;2023-07-13T04:25:43;18.00;99.90
3756;DHT22;1893;52.526;13.360;2023-07-13T04:28:09;18.10;99.90
3756;DHT22;1893;52.526;13.360;2023-07-13T04:30:35;18.20;99.90
3756;DHT22;1893;52.526;13.360;2023-07-13T04:33:01;18.30;99.90
3756;DHT22;1893;52.526;13.360;2023-07-13T04:35:26;18.30;99.90
3756;DHT22;1893;52.526;13.360;2023-07-13T04:37:52;18.40;99.90
3756;DHT22;1893;52.526;13.360;2023-07-13T04:40:19;18.50;99.90
3756;DHT22;1893;52.526;13.360;2023-07-13T04:42:46;18.50;99.90
3756;DHT22;1893;52.526;13.360;2023-07-13T04:45:15;18.50;99.90
3756;DHT22;1893;52.526;13.360;2023-07-13T04:47:41;18.50;99.90
3756;DHT22;1893;52.526;13.360;2023-07-13T04:50:08;18.50;99.90
3756;DHT22;1893;52.526;13.360;2023-07-13T04:52:34;18.50;99.90
3756;DHT22;1893;52.526;13.360;2023-07-13T04:55:00;18.60;99.90
3756;DHT22;1893;52.526;13.360;2023-07-13T04:57:26;18.70;99.90
3756;DHT22;1893;52.526;13.360;2023-07-13T04:59:52;18.70;99.90
3756;DHT22;1893;52.526;13.360;2023-07-13T05:02:18;18.80;99.90
3756;DHT22;1893;52.526;13.360;2023-07-13T05:04:49;18.80;99.90
3756;DHT22;1893;52.526;13.360;2023-07-13T05:07:15;18.80;99.90
3756;DHT22;1893;52.526;13.360;2023-07-13T05:09:41;18.90;99.90
3756;DHT22;1893;52.526;13.360;2023-07-13T05:12:08;19.00;99.90
3756;DHT22;1893;52.526;13.360;2023-07-13T05:14:34;19.10;99.90
3756;DHT22;1893;52.526;13.360;2023-07-13T05:16:59;19.10;99.90
3756;DHT22;1893;52.526;13.360;2023-07-13T05:19:25;19.20;99.90
3756;DHT22;1893;52.526;13.360;2023-07-13T05:21:51;19.20;99.90
3756;DHT22;1893;52.526;13.360;2023-07-13T05:24:17;19.40;99.90
3756;DHT22;1893;52.526;13.360;2023-07-13T05:26:43;19.40;99.90
3756;DHT22;1893;52.526;13.360;2023-07-13T05:29:09;19.40;99.90
3756;DHT22;1893;52.526;13.360;2023-07-13T05:31:35;19.50;99.90
3756;DHT22;1893;52.526;13.360;2023-07-13T05:34:00;19.60;99.90
3756;DHT22;1893;52.526;13.360;2023-07-13T05:36:26;19.80;99.90
3756;DHT22;1893;52.526;13.360;2023-07-13T05:38:52;19.80;99.90
3756;DHT22;1893;52.526;13.360;2023-07-13T05:41:17;20.00;99.90
3756;DHT22;1893;52.526;13.360;2023-07-13T05:43:43;20.00;99.90
3756;DHT22;1893;52.526;13.360;2023-07-13T05:46:08;20.10;99.90
3756;DHT22;1893;52.526;13.360;2023-07-13T05:48:34;20.10;99.90
3756;DHT22;1893;52.526;13.360;2023-07-13T05:51:00;20.20;99.90
3756;DHT22;1893;52.526;13.360;2023-07-13T05:53:26;20.20;99.90
3756;DHT22;1893;52.526;13.360;2023-07-13T05:55:54;20.20;99.90
3756;DHT22;1893;52.526;13.360;2023-07-13T05:58:20;20.20;99.90
3756;DHT22;1893;52.526;13.360;2023-07-13T06:00:47;20.30;99.90
3756;DHT22;1893;52.526;13.360;2023-07-13T06:03:12;20.40;99.90
3756;DHT22;1893;52.526;13.360;2023-07-13T06:05:38;20.50;99.90
3756;DHT22;1893;52.526;13.360;2023-07-13T06:08:04;20.60;99.90
3756;DHT22;1893;52.526;13.360;2023-07-13T06:10:32;20.70;99.90
3756;DHT22;1893;52.526;13.360;2023-07-13T06:12:58;20.60;99.90
3756;DHT22;1893;52.526;13.360;2023-07-13T06:15:24;20.90;99.90
3756;DHT22;1893;52.526;13.360;2023-07-13T06:17:49;20.80;99.90
3756;DHT22;1893;52.526;13.360;2023-07-13T06:20:15;21.00;99.90
3756;DHT22;1893;52.526;13.360;2023-07-13T06:22:41;21.00;99.90
3756;DHT22;1893;52.526;13.360;2023-07-13T06:25:07;21.10;99.90
3756;DHT22;1893;52.526;13.360;2023-07-13T06:27:32;21.30;99.90
3756;DHT22;1893;52.526;13.360;2023-07-13T06:29:58;21.20;99.90
3756;DHT22;1893;52.526;13.360;2023-07-13T06:32:24;21.20;99.90
3756;DHT22;1893;52.526;13.360;2023-07-13T06:34:49;21.20;99.90
3756;DHT22;1893;52.526;13.360;2023-07-13T06:37:17;21.40;99.90
3756;DHT22;1893;52.526;13.360;2023-07-13T06:39:43;21.40;99.90
3756;DHT22;1893;52.526;13.360;2023-07-13T06:42:08;21.30;99.90
3756;DHT22;1893;52.526;13.360;2023-07-13T06:44:34;21.40;99.90
3756;DHT22;1893;52.526;13.360;2023-07-13T06:47:00;21.50;99.90
3756;DHT22;1893;52.526;13.360;2023-07-13T06:49:25;21.50;99.90
3756;DHT22;1893;52.526;13.360;2023-07-13T06:51:51;21.50;99.90
3756;DHT22;1893;52.526;13.360;2023-07-13T06:54:17;21.50;99.90
3756;DHT22;1893;52.526;13.360;2023-07-13T06:56:42;21.60;99.90
3756;DHT22;1893;52.526;13.360;2023-07-13T06:59:08;21.50;99.90
3756;DHT22;1893;52.526;13.360;2023-07-13T07:01:33;21.50;99.90
3756;DHT22;1893;52.526;13.360;2023-07-13T07:03:59;21.70;99.90
3756;DHT22;1893;52.526;13.360;2023-07-13T07:06:25;21.60;99.90
3756;DHT22;1893;52.526;13.360;2023-07-13T07:08:51;21.80;99.90
3756;DHT22;1893;52.526;13.360;2023-07-13T07:11:20;21.70;99.90
3756;DHT22;1893;52.526;13.360;2023-07-13T07:13:47;21.80;99.90
3756;DHT22;1893;52.526;13.360;2023-07-13T07:16:13;21.80;99.90
3756;DHT22;1893;52.526;13.360;2023-07-13T07:18:39;22.00;99.90
3756;DHT22;1893;52.526;13.360;2023-07-13T07:21:05;22.20;99.90
3756;DHT22;1893;52.526;13.360;2023-07-13T07:23:30;22.30;99.90
3756;DHT22;1893;52.526;13.360;2023-07-13T07:25:56;22.60;99.90
3756;DHT22;1893;52.526;13.360;2023-07-13T07:28:22;22.60;99.90
3756;DHT22;1893;52.526;13.360;2023-07-13T07:30:48;22.70;99.90
3756;DHT22;1893;52.526;13.360;2023-07-13T07:33:15;22.60;99.90
3756;DHT22;1893;52.526;13.360;2023-07-13T07:35:42;22.40;99.90
3756;DHT22;1893;52.526;13.360;2023-07-13T07:38:08;22.40;99.90
3756;DHT22;1893;52.526;13.360;2023-07-13T07:40:37;22.40;99.90
3756;DHT22;1893;52.526;13.360;2023-07-13T07:43:03;22.40;99.90
3756;DHT22;1893;52.526;13.360;2023-07-13T07:45:29;22.20;99.90
3756;DHT22;1893;52.526;13.360;2023-07-13T07:47:54;22.20;99.90
3756;DHT22;1893;52.526;13.360;2023-07-13T07:50:24;22.30;99.90
3756;DHT22;1893;52.526;13.360;2023-07-13T07:52:51;22.20;99.90
3756;DHT22;1893;52.526;13.360;2023-07-13T07:55:16;22.20;99.90
3756;DHT22;1893;52.526;13.360;2023-07-13T07:57:42;22.30;99.90
3756;DHT22;1893;52.526;13.360;2023-07-13T08:00:08;22.60;99.90
3756;DHT22;1893;52.526;13.360;2023-07-13T08:02:34;22.30;99.90
3756;DHT22;1893;52.526;13.360;2023-07-13T08:04:59;22.40;99.90
3756;DHT22;1893;52.526;13.360;2023-07-13T08:07:25;22.40;99.90
3756;DHT22;1893;52.526;13.360;2023-07-13T08:09:54;22.40;99.90
3756;DHT22;1893;52.526;13.360;2023-07-13T08:12:20;22.60;99.90
3756;DHT22;1893;52.526;13.360;2023-07-13T08:14:50;22.80;99.90
3756;DHT22;1893;52.526;13.360;2023-07-13T08:17:19;22.80;99.90
3756;DHT22;1893;52.526;13.360;2023-07-13T08:19:45;22.90;99.90
3756;DHT22;1893;52.526;13.360;2023-07-13T08:22:11;22.90;99.90
3756;DHT22;1893;52.526;13.360;2023-07-13T08:24:36;23.10;99.90
3756;DHT22;1893;52.526;13.360;2023-07-13T08:27:02;23.40;99.90
3756;DHT22;1893;52.526;13.360;2023-07-13T08:29:28;23.40;99.90
3756;DHT22;1893;52.526;13.360;2023-07-13T08:31:53;23.20;99.90
3756;DHT22;1893;52.526;13.360;2023-07-13T08:34:19;22.90;99.90
3756;DHT22;1893;52.526;13.360;2023-07-13T08:36:46;22.90;99.90
3756;DHT22;1893;52.526;13.360;2023-07-13T08:39:11;23.10;99.90
3756;DHT22;1893;52.526;13.360;2023-07-13T08:41:37;23.10;99.90
3756;DHT22;1893;52.526;13.360;2023-07-13T08:44:10;22.80;99.90
3756;DHT22;1893;52.526;13.360;2023-07-13T08:46:44;22.80;99.90
3756;DHT22;1893;52.526;13.360;2023-07-13T08:49:15;22.70;99.90
3756;DHT22;1893;52.526;13.360;2023-07-13T08:51:49;22.50;99.90
3756;DHT22;1893;52.526;13.360;2023-07-13T08:54:38;22.60;99.90
3756;DHT22;1893;52.526;13.360;2023-07-13T08:57:14;22.80;99.90
3756;DHT22;1893;52.526;13.360;2023-07-13T08:59:40;23.30;99.90
3756;DHT22;1893;52.526;13.360;2023-07-13T09:10:16;23.70;99.90
3756;DHT22;1893;52.526;13.360;2023-07-13T09:15:48;24.10;99.90
3756;DHT22;1893;52.526;13.360;2023-07-13T09:18:29;24.20;99.90
3756;DHT22;1893;52.526;13.360;2023-07-13T09:21:02;24.40;99.90
3756;DHT22;1893;52.526;13.360;2023-07-13T09:23:30;24.40;99.90
3756;DHT22;1893;52.526;13.360;2023-07-13T09:26:07;24.40;99.90
3756;DHT22;1893;52.526;13.360;2023-07-13T09:28:39;24.70;99.90
3756;DHT22;1893;52.526;13.360;2023-07-13T09:31:16;24.70;99.90
3756;DHT22;1893;52.526;13.360;2023-07-13T09:33:43;24.60;99.90
3756;DHT22;1893;52.526;13.360;2023-07-13T09:38:43;24.40;99.90
3756;DHT22;1893;52.526;13.360;2023-07-13T09:43:36;24.50;99.90
3756;DHT22;1893;52.526;13.360;2023-07-13T09:46:02;24.60;99.90
3756;DHT22;1893;52.526;13.360;2023-07-13T09:48:34;25.00;99.90
3756;DHT22;1893;52.526;13.360;2023-07-13T09:51:13;25.60;99.90
3756;DHT22;1893;52.526;13.360;2023-07-13T09:53:42;25.50;99.90
3756;DHT22;1893;52.526;13.360;2023-07-13T09:56:20;25.40;99.90
3756;DHT22;1893;52.526;13.360;2023-07-13T09:58:45;26.20;99.90
3756;DHT22;1893;52.526;13.360;2023-07-13T10:01:11;26.40;99.90
3756;DHT22;1893;52.526;13.360;2023-07-13T10:03:39;26.20;99.90
3756;DHT22;1893;52.526;13.360;2023-07-13T10:06:16;26.10;99.90
3756;DHT22;1893;52.526;13.360;2023-07-13T10:08:45;27.10;99.90
3756;DHT22;1893;52.526;13.360;2023-07-13T10:11:12;27.40;99.90
3756;DHT22;1893;52.526;13.360;2023-07-13T10:13:56;28.30;99.90
3756;DHT22;1893;52.526;13.360;2023-07-13T10:16:33;27.70;99.70
3756;DHT22;1893;52.526;13.360;2023-07-13T10:19:12;28.80;99.90
3756;DHT22;1893;52.526;13.360;2023-07-13T10:21:56;28.80;95.90
3756;DHT22;1893;52.526;13.360;2023-07-13T10:24:26;28.40;95.30
3756;DHT22;1893;52.526;13.360;2023-07-13T10:29:51;27.50;94.70
3756;DHT22;1893;52.526;13.360;2023-07-13T10:32:19;26.90;95.20
3756;DHT22;1893;52.526;13.360;2023-07-13T10:34:47;28.00;95.20
3756;DHT22;1893;52.526;13.360;2023-07-13T10:37:31;28.60;95.20
3756;DHT22;1893;52.526;13.360;2023-07-13T10:39:59;28.70;93.70
3756;DHT22;1893;52.526;13.360;2023-07-13T10:42:39;28.80;93.50
3756;DHT22;1893;52.526;13.360;2023-07-13T10:47:39;29.30;92.10
3756;DHT22;1893;52.526;13.360;2023-07-13T10:50:05;29.80;87.90
3756;DHT22;1893;52.526;13.360;2023-07-13T10:52:50;30.30;86.10
3756;DHT22;1893;52.526;13.360;2023-07-13T10:55:35;30.00;83.70
3756;DHT22;1893;52.526;13.360;2023-07-13T11:03:49;28.20;85.80
3756;DHT22;1893;52.526;13.360;2023-07-13T11:14:02;28.30;84.40
3756;DHT22;1893;52.526;13.360;2023-07-13T11:16:46;28.40;84.50
3756;DHT22;1893;52.526;13.360;2023-07-13T11:22:10;28.30;79.00
3756;DHT22;1893;52.526;13.360;2023-07-13T11:27:34;28.50;81.00
3756;DHT22;1893;52.526;13.360;2023-07-13T11:30:25;29.00;78.20
3756;DHT22;1893;52.526;13.360;2023-07-13T11:33:13;29.00;74.80
3756;DHT22;1893;52.526;13.360;2023-07-13T11:36:00;29.10;74.30
3756;DHT22;1893;52.526;13.360;2023-07-13T11:38:37;29.10;68.60
3756;DHT22;1893;52.526;13.360;2023-07-13T11:41:15;29.80;69.90
3756;DHT22;1893;52.526;13.360;2023-07-13T11:43:42;29.60;66.20
3756;DHT22;1893;52.526;13.360;2023-07-13T11:46:22;28.70;67.90
3756;DHT22;1893;52.526;13.360;2023-07-13T11:48:48;28.40;66.40
3756;DHT22;1893;52.526;13.360;2023-07-13T11:53:51;28.10;69.80
3756;DHT22;1893;52.526;13.360;2023-07-13T11:56:17;27.40;69.00
3756;DHT22;1893;52.526;13.360;2023-07-13T11:58:43;26.80;71.30
3756;DHT22;1893;52.526;13.360;2023-07-13T12:01:18;26.30;72.70
3756;DHT22;1893;52.526;13.360;2023-07-13T12:03:45;26.30;73.20
3756;DHT22;1893;52.526;13.360;2023-07-13T12:06:33;26.40;73.10
3756;DHT22;1893;52.526;13.360;2023-07-13T12:09:08;26.40;73.50
3756;DHT22;1893;52.526;13.360;2023-07-13T12:11:40;26.20;74.80
3756;DHT22;1893;52.526;13.360;2023-07-13T12:14:05;26.50;74.50
3756;DHT22;1893;52.526;13.360;2023-07-13T12:16:32;26.60;75.30
3756;DHT22;1893;52.526;13.360;2023-07-13T12:19:02;27.10;76.40
3756;DHT22;1893;52.526;13.360;2023-07-13T12:21:38;27.20;76.10
3756;DHT22;1893;52.526;13.360;2023-07-13T12:24:04;27.50;76.40
3756;DHT22;1893;52.526;13.360;2023-07-13T12:26:31;27.00;76.20
3756;DHT22;1893;52.526;13.360;2023-07-13T12:29:00;26.70;76.00
3756;DHT22;1893;52.526;13.360;2023-07-13T12:33:59;26.00;72.20
3756;DHT22;1893;52.526;13.360;2023-07-13T12:36:25;26.30;74.10
3756;DHT22;1893;52.526;13.360;2023-07-13T12:38:51;26.50;74.30
3756;DHT22;1893;52.526;13.360;2023-07-13T12:41:17;26.70;74.00
3756;DHT22;1893;52.526;13.360;2023-07-13T12:43:45;26.50;70.40
3756;DHT22;1893;52.526;13.360;2023-07-13T12:46:23;26.50;70.00
3756;DHT22;1893;52.526;13.360;2023-07-13T12:48:53;26.50;68.90
3756;DHT22;1893;52.526;13.360;2023-07-13T12:51:22;26.60;71.00
3756;DHT22;1893;52.526;13.360;2023-07-13T12:53:57;26.30;67.60
3756;DHT22;1893;52.526;13.360;2023-07-13T12:56:25;26.50;68.20
3756;DHT22;1893;52.526;13.360;2023-07-13T12:58:58;26.10;68.30
3756;DHT22;1893;52.526;13.360;2023-07-13T13:01:28;25.90;71.10
3756;DHT22;1893;52.526;13.360;2023-07-13T13:03:54;26.00;71.30
3756;DHT22;1893;52.526;13.360;2023-07-13T13:06:25;25.80;71.70
3756;DHT22;1893;52.526;13.360;2023-07-13T13:08:56;25.60;70.60
3756;DHT22;1893;52.526;13.360;2023-07-13T13:11:24;25.70;70.70
3756;DHT22;1893;52.526;13.360;2023-07-13T13:13:51;26.00;71.10
3756;DHT22;1893;52.526;13.360;2023-07-13T13:16:43;26.30;73.10
3756;DHT22;1893;52.526;13.360;2023-07-13T13:21:43;26.80;73.00
3756;DHT22;1893;52.526;13.360;2023-07-13T13:24:14;26.40;72.10
3756;DHT22;1893;52.526;13.360;2023-07-13T13:26:40;26.50;71.70
3756;DHT22;1893;52.526;13.360;2023-07-13T13:29:15;26.30;71.60
3756;DHT22;1893;52.526;13.360;2023-07-13T13:31:42;26.30;70.00
3756;DHT22;1893;52.526;13.360;2023-07-13T13:34:12;26.50;71.10
3756;DHT22;1893;52.526;13.360;2023-07-13T13:36:40;26.50;71.40
3756;DHT22;1893;52.526;13.360;2023-07-13T13:39:21;26.20;69.30
3756;DHT22;1893;52.526;13.360;2023-07-13T13:41:48;25.80;71.20
3756;DHT22;1893;52.526;13.360;2023-07-13T13:44:19;25.50;71.90
3756;DHT22;1893;52.526;13.360;2023-07-13T13:46:47;25.60;70.30
3756;DHT22;1893;52.526;13.360;2023-07-13T13:49:18;26.00;70.40
3756;DHT22;1893;52.526;13.360;2023-07-13T13:51:46;25.80;71.90
3756;DHT22;1893;52.526;13.360;2023-07-13T13:54:13;25.90;72.50
3756;DHT22;1893;52.526;13.360;2023-07-13T13:56:44;26.10;70.70
3756;DHT22;1893;52.526;13.360;2023-07-13T13:59:11;26.20;70.90
3756;DHT22;1893;52.526;13.360;2023-07-13T14:01:37;26.50;70.80
3756;DHT22;1893;52.526;13.360;2023-07-13T14:04:04;26.40;69.60
3756;DHT22;1893;52.526;13.360;2023-07-13T14:06:32;26.20;71.20
3756;DHT22;1893;52.526;13.360;2023-07-13T14:08:58;25.90;70.00
3756;DHT22;1893;52.526;13.360;2023-07-13T14:11:24;26.00;72.00
3756;DHT22;1893;52.526;13.360;2023-07-13T14:14:00;26.30;73.80
3756;DHT22;1893;52.526;13.360;2023-07-13T14:16:28;26.40;72.50
3756;DHT22;1893;52.526;13.360;2023-07-13T14:18:55;26.30;71.30
3756;DHT22;1893;52.526;13.360;2023-07-13T14:21:24;26.00;72.20
3756;DHT22;1893;52.526;13.360;2023-07-13T14:23:50;25.80;74.20
3756;DHT22;1893;52.526;13.360;2023-07-13T14:26:21;25.90;74.60
3756;DHT22;1893;52.526;13.360;2023-07-13T14:28:49;25.70;75.00
3756;DHT22;1893;52.526;13.360;2023-07-13T14:31:16;25.70;75.50
3756;DHT22;1893;52.526;13.360;2023-07-13T14:33:43;25.70;74.80
3756;DHT22;1893;52.526;13.360;2023-07-13T14:36:32;25.70;74.50
3756;DHT22;1893;52.526;13.360;2023-07-13T14:39:04;25.70;73.90
3756;DHT22;1893;52.526;13.360;2023-07-13T14:41:31;25.80;75.30
3756;DHT22;1893;52.526;13.360;2023-07-13T14:43:57;25.80;74.60
3756;DHT22;1893;52.526;13.360;2023-07-13T14:46:32;25.80;74.20
3756;DHT22;1893;52.526;13.360;2023-07-13T14:52:05;25.90;72.90
3756;DHT22;1893;52.526;13.360;2023-07-13T14:54:36;25.80;72.10
3756;DHT22;1893;52.526;13.360;2023-07-13T14:57:09;25.50;71.70
3756;DHT22;1893;52.526;13.360;2023-07-13T14:59:35;25.50;72.70
3756;DHT22;1893;52.526;13.360;2023-07-13T15:02:01;25.60;71.20
3756;DHT22;1893;52.526;13.360;2023-07-13T15:04:27;25.80;72.20
3756;DHT22;1893;52.526;13.360;2023-07-13T15:07:02;25.90;70.60
3756;DHT22;1893;52.526;13.360;2023-07-13T15:09:28;26.10;71.70
3756;DHT22;1893;52.526;13.360;2023-07-13T15:11:57;26.00;67.50
3756;DHT22;1893;52.526;13.360;2023-07-13T15:14:24;25.90;67.10
3756;DHT22;1893;52.526;13.360;2023-07-13T15:16:52;25.50;64.60
3756;DHT22;1893;52.526;13.360;2023-07-13T15:19:19;25.60;65.20
3756;DHT22;1893;52.526;13.360;2023-07-13T15:21:46;25.60;65.40
3756;DHT22;1893;52.526;13.360;2023-07-13T15:24:13;25.80;66.50
3756;DHT22;1893;52.526;13.360;2023-07-13T15:26:40;25.80;67.20
3756;DHT22;1893;52.526;13.360;2023-07-13T15:29:06;25.60;68.40
3756;DHT22;1893;52.526;13.360;2023-07-13T15:31:33;25.40;68.90
3756;DHT22;1893;52.526;13.360;2023-07-13T15:34:00;25.60;70.40
3756;DHT22;1893;52.526;13.360;2023-07-13T15:36:26;25.50;70.80
3756;DHT22;1893;52.526;13.360;2023-07-13T15:38:53;25.30;70.30
3756;DHT22;1893;52.526;13.360;2023-07-13T15:41:24;25.30;70.20
3756;DHT22;1893;52.526;13.360;2023-07-13T15:43:52;25.40;71.80
3756;DHT22;1893;52.526;13.360;2023-07-13T15:46:22;25.50;70.70
3756;DHT22;1893;52.526;13.360;2023-07-13T15:48:49;25.50;70.90
3756;DHT22;1893;52.526;13.360;2023-07-13T15:51:26;25.50;70.70
3756;DHT22;1893;52.526;13.360;2023-07-13T15:53:58;25.60;71.60
3756;DHT22;1893;52.526;13.360;2023-07-13T15:56:26;25.70;72.30
3756;DHT22;1893;52.526;13.360;2023-07-13T15:58:54;25.60;71.20
3756;DHT22;1893;52.526;13.360;2023-07-13T16:01:20;25.40;71.50
3756;DHT22;1893;52.526;13.360;2023-07-13T16:03:47;25.20;71.30
3756;DHT22;1893;52.526;13.360;2023-07-13T16:06:16;25.00;69.40
3756;DHT22;1893;52.526;13.360;2023-07-13T16:08:44;25.10;70.30
3756;DHT22;1893;52.526;13.360;2023-07-13T16:11:16;25.30;70.10
3756;DHT22;1893;52.526;13.360;2023-07-13T16:13:44;25.40;70.50
3756;DHT22;1893;52.526;13.360;2023-07-13T16:16:12;25.30;70.40
3756;DHT22;1893;52.526;13.360;2023-07-13T16:18:38;25.30;70.80
3756;DHT22;1893;52.526;13.360;2023-07-13T16:21:09;25.30;71.10
3756;DHT22;1893;52.526;13.360;2023-07-13T16:23:37;25.30;70.20
3756;DHT22;1893;52.526;13.360;2023-07-13T16:26:03;25.10;70.60
3756;DHT22;1893;52.526;13.360;2023-07-13T16:28:29;25.20;70.80
3756;DHT22;1893;52.526;13.360;2023-07-13T16:30:56;25.10;71.50
3756;DHT22;1893;52.526;13.360;2023-07-13T16:33:22;25.00;70.40
3756;DHT22;1893;52.526;13.360;2023-07-13T16:35:47;24.90;69.70
3756;DHT22;1893;52.526;13.360;2023-07-13T16:38:15;24.60;70.10
3756;DHT22;1893;52.526;13.360;2023-07-13T16:40:41;24.50;69.70
3756;DHT22;1893;52.526;13.360;2023-07-13T16:43:15;24.50;70.20
3756;DHT22;1893;52.526;13.360;2023-07-13T16:45:45;24.60;70.60